sensor_id;sensor_type;location;lat;lon;timestamp;P1;durP1;ratioP1;P2;durP2;ratioP2
66874;SDS011;53784;52.630;4.896;2023-04-29T00:01:01;23.77;;;11.73;;
66874;SDS011;53784;52.630;4.896;2023-04-29T00:03:27;23.05;;;12.05;;
66874;SDS011;53784;52.630;4.896;2023-04-29T00:05:56;22.80;;;12.13;;
66874;SDS011;53784;52.630;4.896;2023-04-29T00:08:23;29.63;;;13.02;;
66874;SDS011;53784;52.630;4.896;2023-04-29T00:10:48;25.45;;;12.68;;
66874;SDS011;53784;52.630;4.896;2023-04-29T00:13:14;26.83;;;13.07;;
66874;SDS011;53784;52.630;4.896;2023-04-29T00:15:39;22.88;;;11.98;;
66874;SDS011;53784;52.630;4.896;2023-04-29T00:18:05;28.27;;;13.05;;
66874;SDS011;53784;52.630;4.896;2023-04-29T00:20:30;24.63;;;12.48;;
66874;SDS011;53784;52.630;4.896;2023-04-29T00:22:56;23.77;;;11.93;;
66874;SDS011;53784;52.630;4.896;2023-04-29T00:25:21;25.08;;;12.48;;
66874;SDS011;53784;52.630;4.896;2023-04-29T00:27:46;24.25;;;12.15;;
66874;SDS011;53784;52.630;4.896;2023-04-29T00:30:11;30.42;;;12.98;;
66874;SDS011;53784;52.630;4.896;2023-04-29T00:32:37;30.30;;;12.93;;
66874;SDS011;53784;52.630;4.896;2023-04-29T00:35:02;25.52;;;12.23;;
66874;SDS011;53784;52.630;4.896;2023-04-29T00:37:28;28.17;;;12.20;;
66874;SDS011;53784;52.630;4.896;2023-04-29T00:39:53;24.30;;;12.02;;
66874;SDS011;53784;52.630;4.896;2023-04-29T00:42:19;22.17;;;12.02;;
66874;SDS011;53784;52.630;4.896;2023-04-29T00:44:44;26.27;;;12.55;;
66874;SDS011;53784;52.630;4.896;2023-04-29T00:47:10;22.25;;;11.30;;
66874;SDS011;53784;52.630;4.896;2023-04-29T00:49:36;22.90;;;11.82;;
66874;SDS011;53784;52.630;4.896;2023-04-29T00:52:03;22.08;;;10.15;;
66874;SDS011;53784;52.630;4.896;2023-04-29T00:54:28;23.38;;;11.55;;
66874;SDS011;53784;52.630;4.896;2023-04-29T00:56:53;24.35;;;12.13;;
66874;SDS011;53784;52.630;4.896;2023-04-29T00:59:19;24.13;;;11.65;;
66874;SDS011;53784;52.630;4.896;2023-04-29T01:01:45;21.30;;;10.90;;
66874;SDS011;53784;52.630;4.896;2023-04-29T01:04:10;21.55;;;11.63;;
66874;SDS011;53784;52.630;4.896;2023-04-29T01:09:12;23.02;;;11.18;;
66874;SDS011;53784;52.630;4.896;2023-04-29T01:11:48;21.98;;;11.43;;
66874;SDS011;53784;52.630;4.896;2023-04-29T01:14:19;22.33;;;10.82;;
66874;SDS011;53784;52.630;4.896;2023-04-29T01:16:50;26.02;;;11.68;;
66874;SDS011;53784;52.630;4.896;2023-04-29T01:22:14;24.08;;;11.38;;
66874;SDS011;53784;52.630;4.896;2023-04-29T01:24:41;24.38;;;11.48;;
66874;SDS011;53784;52.630;4.896;2023-04-29T01:27:19;23.05;;;11.73;;
66874;SDS011;53784;52.630;4.896;2023-04-29T01:29:57;23.85;;;10.55;;
66874;SDS011;53784;52.630;4.896;2023-04-29T01:35:29;26.67;;;11.02;;
66874;SDS011;53784;52.630;4.896;2023-04-29T01:38:10;21.58;;;10.27;;
66874;SDS011;53784;52.630;4.896;2023-04-29T01:43:09;20.88;;;10.27;;
66874;SDS011;53784;52.630;4.896;2023-04-29T01:45:35;24.55;;;11.30;;
66874;SDS011;53784;52.630;4.896;2023-04-29T01:48:05;21.77;;;10.90;;
66874;SDS011;53784;52.630;4.896;2023-04-29T01:50:30;24.90;;;11.73;;
66874;SDS011;53784;52.630;4.896;2023-04-29T01:52:58;22.85;;;11.25;;
66874;SDS011;53784;52.630;4.896;2023-04-29T01:55:23;22.63;;;11.15;;
66874;SDS011;53784;52.630;4.896;2023-04-29T01:57:49;22.75;;;11.98;;
66874;SDS011;53784;52.630;4.896;2023-04-29T02:00:14;23.13;;;12.02;;
66874;SDS011;53784;52.630;4.896;2023-04-29T02:02:40;26.05;;;11.38;;
66874;SDS011;53784;52.630;4.896;2023-04-29T02:05:05;24.17;;;12.10;;
66874;SDS011;53784;52.630;4.896;2023-04-29T02:07:31;24.65;;;11.95;;
66874;SDS011;53784;52.630;4.896;2023-04-29T02:09:56;20.92;;;10.75;;
66874;SDS011;53784;52.630;4.896;2023-04-29T02:12:21;24.98;;;11.55;;
66874;SDS011;53784;52.630;4.896;2023-04-29T02:14:50;26.85;;;11.90;;
66874;SDS011;53784;52.630;4.896;2023-04-29T02:17:16;24.80;;;12.05;;
66874;SDS011;53784;52.630;4.896;2023-04-29T02:19:41;25.67;;;11.73;;
66874;SDS011;53784;52.630;4.896;2023-04-29T02:22:07;24.80;;;11.70;;
66874;SDS011;53784;52.630;4.896;2023-04-29T02:24:32;28.20;;;12.68;;
66874;SDS011;53784;52.630;4.896;2023-04-29T02:26:57;26.83;;;12.15;;
66874;SDS011;53784;52.630;4.896;2023-04-29T02:29:23;22.33;;;11.32;;
66874;SDS011;53784;52.630;4.896;2023-04-29T02:31:50;20.35;;;10.80;;
66874;SDS011;53784;52.630;4.896;2023-04-29T02:34:16;24.98;;;10.77;;
66874;SDS011;53784;52.630;4.896;2023-04-29T02:36:45;26.38;;;12.43;;
66874;SDS011;53784;52.630;4.896;2023-04-29T02:39:10;29.70;;;11.80;;
66874;SDS011;53784;52.630;4.896;2023-04-29T02:41:35;23.02;;;11.32;;
66874;SDS011;53784;52.630;4.896;2023-04-29T02:44:01;22.75;;;11.23;;
66874;SDS011;53784;52.630;4.896;2023-04-29T02:46:26;21.42;;;10.80;;
66874;SDS011;53784;52.630;4.896;2023-04-29T02:48:51;20.88;;;10.68;;
66874;SDS011;53784;52.630;4.896;2023-04-29T02:51:16;24.30;;;10.43;;
66874;SDS011;53784;52.630;4.896;2023-04-29T02:53:42;26.17;;;11.00;;
66874;SDS011;53784;52.630;4.896;2023-04-29T02:56:08;28.95;;;11.00;;
66874;SDS011;53784;52.630;4.896;2023-04-29T02:58:33;24.30;;;11.45;;
66874;SDS011;53784;52.630;4.896;2023-04-29T03:00:58;20.20;;;9.63;;
66874;SDS011;53784;52.630;4.896;2023-04-29T03:03:24;22.13;;;10.85;;
66874;SDS011;53784;52.630;4.896;2023-04-29T03:05:49;20.67;;;9.85;;
66874;SDS011;53784;52.630;4.896;2023-04-29T03:08:15;22.52;;;11.18;;
66874;SDS011;53784;52.630;4.896;2023-04-29T03:10:40;22.42;;;10.45;;
66874;SDS011;53784;52.630;4.896;2023-04-29T03:13:05;21.83;;;10.43;;
66874;SDS011;53784;52.630;4.896;2023-04-29T03:15:31;22.48;;;11.02;;
66874;SDS011;53784;52.630;4.896;2023-04-29T03:17:56;21.52;;;10.15;;
66874;SDS011;53784;52.630;4.896;2023-04-29T03:20:28;21.48;;;11.27;;
66874;SDS011;53784;52.630;4.896;2023-04-29T03:22:53;23.50;;;10.50;;
66874;SDS011;53784;52.630;4.896;2023-04-29T03:25:19;24.42;;;10.57;;
66874;SDS011;53784;52.630;4.896;2023-04-29T03:27:44;25.33;;;10.65;;
66874;SDS011;53784;52.630;4.896;2023-04-29T03:30:10;22.75;;;10.35;;
66874;SDS011;53784;52.630;4.896;2023-04-29T03:32:35;18.42;;;9.77;;
66874;SDS011;53784;52.630;4.896;2023-04-29T03:35:01;22.63;;;10.32;;
66874;SDS011;53784;52.630;4.896;2023-04-29T03:37:26;23.65;;;10.63;;
66874;SDS011;53784;52.630;4.896;2023-04-29T03:39:51;19.52;;;9.63;;
66874;SDS011;53784;52.630;4.896;2023-04-29T03:42:18;21.88;;;10.13;;
66874;SDS011;53784;52.630;4.896;2023-04-29T03:44:43;23.45;;;9.85;;
66874;SDS011;53784;52.630;4.896;2023-04-29T03:47:09;21.08;;;10.15;;
66874;SDS011;53784;52.630;4.896;2023-04-29T03:49:34;19.23;;;10.18;;
66874;SDS011;53784;52.630;4.896;2023-04-29T03:51:59;19.15;;;9.80;;
66874;SDS011;53784;52.630;4.896;2023-04-29T03:54:25;23.05;;;10.27;;
66874;SDS011;53784;52.630;4.896;2023-04-29T03:56:50;20.27;;;10.00;;
66874;SDS011;53784;52.630;4.896;2023-04-29T03:59:16;19.52;;;9.27;;
66874;SDS011;53784;52.630;4.896;2023-04-29T04:01:41;22.65;;;10.05;;
66874;SDS011;53784;52.630;4.896;2023-04-29T04:04:06;21.38;;;9.52;;
66874;SDS011;53784;52.630;4.896;2023-04-29T04:06:32;21.33;;;9.45;;
66874;SDS011;53784;52.630;4.896;2023-04-29T04:08:57;21.65;;;9.93;;
66874;SDS011;53784;52.630;4.896;2023-04-29T04:11:23;22.17;;;9.82;;
66874;SDS011;53784;52.630;4.896;2023-04-29T04:13:48;23.90;;;9.75;;
66874;SDS011;53784;52.630;4.896;2023-04-29T04:16:13;24.35;;;10.55;;
66874;SDS011;53784;52.630;4.896;2023-04-29T04:18:39;24.77;;;10.23;;
66874;SDS011;53784;52.630;4.896;2023-04-29T04:21:05;23.13;;;9.93;;
66874;SDS011;53784;52.630;4.896;2023-04-29T04:23:33;22.48;;;9.82;;
66874;SDS011;53784;52.630;4.896;2023-04-29T04:26:02;20.08;;;9.13;;
66874;SDS011;53784;52.630;4.896;2023-04-29T04:28:27;19.42;;;9.23;;
66874;SDS011;53784;52.630;4.896;2023-04-29T04:30:53;22.25;;;9.52;;
66874;SDS011;53784;52.630;4.896;2023-04-29T04:33:18;25.38;;;10.02;;
66874;SDS011;53784;52.630;4.896;2023-04-29T04:35:44;23.23;;;9.80;;
66874;SDS011;53784;52.630;4.896;2023-04-29T04:38:09;19.23;;;8.88;;
66874;SDS011;53784;52.630;4.896;2023-04-29T04:40:42;23.40;;;9.00;;
66874;SDS011;53784;52.630;4.896;2023-04-29T04:43:07;18.90;;;8.45;;
66874;SDS011;53784;52.630;4.896;2023-04-29T04:45:33;23.00;;;9.32;;
66874;SDS011;53784;52.630;4.896;2023-04-29T04:47:58;22.08;;;9.27;;
66874;SDS011;53784;52.630;4.896;2023-04-29T04:50:26;22.58;;;9.13;;
66874;SDS011;53784;52.630;4.896;2023-04-29T04:52:53;24.25;;;9.27;;
66874;SDS011;53784;52.630;4.896;2023-04-29T04:55:20;20.20;;;8.98;;
66874;SDS011;53784;52.630;4.896;2023-04-29T04:57:45;21.67;;;8.75;;
66874;SDS011;53784;52.630;4.896;2023-04-29T05:00:11;20.80;;;8.93;;
66874;SDS011;53784;52.630;4.896;2023-04-29T05:02:36;23.10;;;9.40;;
66874;SDS011;53784;52.630;4.896;2023-04-29T05:05:02;17.90;;;8.60;;
66874;SDS011;53784;52.630;4.896;2023-04-29T05:07:27;22.77;;;8.80;;
66874;SDS011;53784;52.630;4.896;2023-04-29T05:09:54;20.92;;;8.65;;
66874;SDS011;53784;52.630;4.896;2023-04-29T05:12:19;21.45;;;8.90;;
66874;SDS011;53784;52.630;4.896;2023-04-29T05:14:45;20.42;;;8.45;;
66874;SDS011;53784;52.630;4.896;2023-04-29T05:17:10;21.20;;;8.50;;
66874;SDS011;53784;52.630;4.896;2023-04-29T05:19:35;22.38;;;9.15;;
66874;SDS011;53784;52.630;4.896;2023-04-29T05:22:01;16.48;;;8.25;;
66874;SDS011;53784;52.630;4.896;2023-04-29T05:24:26;22.58;;;10.57;;
66874;SDS011;53784;52.630;4.896;2023-04-29T05:26:51;19.10;;;9.23;;
66874;SDS011;53784;52.630;4.896;2023-04-29T05:29:18;18.77;;;8.45;;
66874;SDS011;53784;52.630;4.896;2023-04-29T05:31:49;22.15;;;12.25;;
66874;SDS011;53784;52.630;4.896;2023-04-29T05:34:15;17.30;;;8.70;;
66874;SDS011;53784;52.630;4.896;2023-04-29T05:36:40;17.27;;;8.60;;
66874;SDS011;53784;52.630;4.896;2023-04-29T05:39:07;19.02;;;10.35;;
66874;SDS011;53784;52.630;4.896;2023-04-29T05:41:32;18.95;;;8.25;;
66874;SDS011;53784;52.630;4.896;2023-04-29T05:43:58;21.10;;;8.65;;
66874;SDS011;53784;52.630;4.896;2023-04-29T05:46:23;17.65;;;8.73;;
66874;SDS011;53784;52.630;4.896;2023-04-29T05:48:48;15.43;;;7.43;;
66874;SDS011;53784;52.630;4.896;2023-04-29T05:51:13;16.55;;;8.93;;
66874;SDS011;53784;52.630;4.896;2023-04-29T05:53:44;14.93;;;7.47;;
66874;SDS011;53784;52.630;4.896;2023-04-29T05:56:09;13.90;;;7.43;;
66874;SDS011;53784;52.630;4.896;2023-04-29T05:58:35;12.85;;;7.35;;
66874;SDS011;53784;52.630;4.896;2023-04-29T06:01:00;14.55;;;7.70;;
66874;SDS011;53784;52.630;4.896;2023-04-29T06:03:25;12.88;;;6.78;;
66874;SDS011;53784;52.630;4.896;2023-04-29T06:05:51;12.73;;;6.50;;
66874;SDS011;53784;52.630;4.896;2023-04-29T06:08:17;13.50;;;6.95;;
66874;SDS011;53784;52.630;4.896;2023-04-29T06:10:43;12.80;;;7.15;;
66874;SDS011;53784;52.630;4.896;2023-04-29T06:13:08;14.48;;;6.95;;
66874;SDS011;53784;52.630;4.896;2023-04-29T06:15:34;15.70;;;6.70;;
66874;SDS011;53784;52.630;4.896;2023-04-29T06:17:59;12.55;;;6.70;;
66874;SDS011;53784;52.630;4.896;2023-04-29T06:20:24;15.27;;;7.50;;
66874;SDS011;53784;52.630;4.896;2023-04-29T06:22:50;13.35;;;6.40;;
66874;SDS011;53784;52.630;4.896;2023-04-29T06:25:15;12.85;;;6.18;;
66874;SDS011;53784;52.630;4.896;2023-04-29T06:27:41;12.75;;;6.97;;
66874;SDS011;53784;52.630;4.896;2023-04-29T06:30:06;11.30;;;6.70;;
66874;SDS011;53784;52.630;4.896;2023-04-29T06:32:32;15.05;;;8.02;;
66874;SDS011;53784;52.630;4.896;2023-04-29T06:34:57;11.07;;;6.07;;
66874;SDS011;53784;52.630;4.896;2023-04-29T06:37:23;9.35;;;6.20;;
66874;SDS011;53784;52.630;4.896;2023-04-29T06:39:48;10.45;;;5.97;;
66874;SDS011;53784;52.630;4.896;2023-04-29T06:42:13;13.25;;;6.20;;
66874;SDS011;53784;52.630;4.896;2023-04-29T06:44:39;10.43;;;6.20;;
66874;SDS011;53784;52.630;4.896;2023-04-29T06:47:04;9.65;;;5.75;;
66874;SDS011;53784;52.630;4.896;2023-04-29T06:49:30;12.18;;;5.80;;
66874;SDS011;53784;52.630;4.896;2023-04-29T06:51:55;10.82;;;6.00;;
66874;SDS011;53784;52.630;4.896;2023-04-29T06:54:21;12.10;;;6.60;;
66874;SDS011;53784;52.630;4.896;2023-04-29T06:56:46;11.30;;;6.50;;
66874;SDS011;53784;52.630;4.896;2023-04-29T06:59:12;10.85;;;5.78;;
66874;SDS011;53784;52.630;4.896;2023-04-29T07:01:39;11.52;;;5.97;;
66874;SDS011;53784;52.630;4.896;2023-04-29T07:04:04;11.05;;;6.25;;
66874;SDS011;53784;52.630;4.896;2023-04-29T07:06:30;10.80;;;6.60;;
66874;SDS011;53784;52.630;4.896;2023-04-29T07:08:55;11.30;;;6.50;;
66874;SDS011;53784;52.630;4.896;2023-04-29T07:11:21;10.00;;;5.53;;
66874;SDS011;53784;52.630;4.896;2023-04-29T07:13:48;9.00;;;5.32;;
66874;SDS011;53784;52.630;4.896;2023-04-29T07:16:14;9.50;;;5.55;;
66874;SDS011;53784;52.630;4.896;2023-04-29T07:18:41;8.50;;;6.18;;
66874;SDS011;53784;52.630;4.896;2023-04-29T07:21:07;11.05;;;6.00;;
66874;SDS011;53784;52.630;4.896;2023-04-29T07:23:32;9.93;;;6.07;;
66874;SDS011;53784;52.630;4.896;2023-04-29T07:25:57;9.85;;;5.72;;
66874;SDS011;53784;52.630;4.896;2023-04-29T07:28:23;9.75;;;5.88;;
66874;SDS011;53784;52.630;4.896;2023-04-29T07:30:48;10.00;;;5.70;;
66874;SDS011;53784;52.630;4.896;2023-04-29T07:33:13;9.68;;;6.00;;
66874;SDS011;53784;52.630;4.896;2023-04-29T07:35:39;9.98;;;5.30;;
66874;SDS011;53784;52.630;4.896;2023-04-29T07:38:07;10.05;;;5.38;;
66874;SDS011;53784;52.630;4.896;2023-04-29T07:40:32;10.40;;;6.20;;
66874;SDS011;53784;52.630;4.896;2023-04-29T07:42:57;20.08;;;13.82;;
66874;SDS011;53784;52.630;4.896;2023-04-29T07:45:23;8.80;;;5.40;;
66874;SDS011;53784;52.630;4.896;2023-04-29T07:47:48;6.83;;;4.80;;
66874;SDS011;53784;52.630;4.896;2023-04-29T07:50:13;8.97;;;5.03;;
66874;SDS011;53784;52.630;4.896;2023-04-29T07:52:39;8.77;;;5.07;;
66874;SDS011;53784;52.630;4.896;2023-04-29T07:55:04;8.48;;;5.43;;
66874;SDS011;53784;52.630;4.896;2023-04-29T07:57:30;8.43;;;5.57;;
66874;SDS011;53784;52.630;4.896;2023-04-29T07:59:55;8.33;;;5.90;;
66874;SDS011;53784;52.630;4.896;2023-04-29T08:02:20;8.15;;;5.43;;
66874;SDS011;53784;52.630;4.896;2023-04-29T08:04:46;7.72;;;5.28;;
66874;SDS011;53784;52.630;4.896;2023-04-29T08:07:11;9.55;;;5.80;;
66874;SDS011;53784;52.630;4.896;2023-04-29T08:09:37;8.93;;;5.70;;
66874;SDS011;53784;52.630;4.896;2023-04-29T08:12:02;10.45;;;5.50;;
66874;SDS011;53784;52.630;4.896;2023-04-29T08:14:28;8.00;;;5.30;;
66874;SDS011;53784;52.630;4.896;2023-04-29T08:16:53;8.50;;;6.00;;
66874;SDS011;53784;52.630;4.896;2023-04-29T08:19:19;9.70;;;5.75;;
66874;SDS011;53784;52.630;4.896;2023-04-29T08:21:45;9.32;;;5.80;;
66874;SDS011;53784;52.630;4.896;2023-04-29T08:24:11;7.55;;;5.53;;
66874;SDS011;53784;52.630;4.896;2023-04-29T08:26:38;8.45;;;5.72;;
66874;SDS011;53784;52.630;4.896;2023-04-29T08:29:04;8.90;;;5.70;;
66874;SDS011;53784;52.630;4.896;2023-04-29T08:31:29;7.20;;;5.80;;
66874;SDS011;53784;52.630;4.896;2023-04-29T08:33:55;7.68;;;5.75;;
66874;SDS011;53784;52.630;4.896;2023-04-29T08:36:22;8.82;;;5.68;;
66874;SDS011;53784;52.630;4.896;2023-04-29T08:38:47;10.30;;;7.30;;
66874;SDS011;53784;52.630;4.896;2023-04-29T08:41:16;8.87;;;5.67;;
66874;SDS011;53784;52.630;4.896;2023-04-29T08:43:42;10.10;;;6.30;;
66874;SDS011;53784;52.630;4.896;2023-04-29T08:46:07;7.63;;;5.93;;
66874;SDS011;53784;52.630;4.896;2023-04-29T08:48:33;7.65;;;5.70;;
66874;SDS011;53784;52.630;4.896;2023-04-29T08:51:01;7.22;;;5.50;;
66874;SDS011;53784;52.630;4.896;2023-04-29T08:53:27;6.90;;;5.37;;
66874;SDS011;53784;52.630;4.896;2023-04-29T08:55:52;7.22;;;5.18;;
66874;SDS011;53784;52.630;4.896;2023-04-29T08:58:18;8.30;;;5.22;;
66874;SDS011;53784;52.630;4.896;2023-04-29T09:00:44;7.47;;;5.80;;
66874;SDS011;53784;52.630;4.896;2023-04-29T09:03:24;8.02;;;5.85;;
66874;SDS011;53784;52.630;4.896;2023-04-29T09:05:54;8.20;;;5.47;;
66874;SDS011;53784;52.630;4.896;2023-04-29T09:08:22;7.80;;;5.38;;
66874;SDS011;53784;52.630;4.896;2023-04-29T09:10:48;7.07;;;5.72;;
66874;SDS011;53784;52.630;4.896;2023-04-29T09:13:21;7.90;;;5.57;;
66874;SDS011;53784;52.630;4.896;2023-04-29T09:15:47;6.68;;;4.95;;
66874;SDS011;53784;52.630;4.896;2023-04-29T09:18:39;7.33;;;5.30;;
66874;SDS011;53784;52.630;4.896;2023-04-29T09:21:12;7.30;;;5.28;;
66874;SDS011;53784;52.630;4.896;2023-04-29T09:23:41;8.07;;;5.32;;
66874;SDS011;53784;52.630;4.896;2023-04-29T09:26:07;7.50;;;5.20;;
66874;SDS011;53784;52.630;4.896;2023-04-29T09:28:32;7.22;;;5.15;;
66874;SDS011;53784;52.630;4.896;2023-04-29T09:30:58;6.70;;;4.90;;
66874;SDS011;53784;52.630;4.896;2023-04-29T09:33:23;8.07;;;5.45;;
66874;SDS011;53784;52.630;4.896;2023-04-29T09:35:52;6.70;;;4.97;;
66874;SDS011;53784;52.630;4.896;2023-04-29T09:38:18;7.80;;;5.20;;
66874;SDS011;53784;52.630;4.896;2023-04-29T09:40:43;6.82;;;5.00;;
66874;SDS011;53784;52.630;4.896;2023-04-29T09:43:13;7.70;;;4.90;;
66874;SDS011;53784;52.630;4.896;2023-04-29T09:45:46;7.65;;;5.28;;
66874;SDS011;53784;52.630;4.896;2023-04-29T09:48:12;7.78;;;5.20;;
66874;SDS011;53784;52.630;4.896;2023-04-29T09:50:39;7.30;;;5.25;;
66874;SDS011;53784;52.630;4.896;2023-04-29T09:53:06;8.05;;;4.90;;
66874;SDS011;53784;52.630;4.896;2023-04-29T09:55:34;6.05;;;4.82;;
66874;SDS011;53784;52.630;4.896;2023-04-29T09:58:00;6.43;;;5.40;;
66874;SDS011;53784;52.630;4.896;2023-04-29T10:00:26;7.72;;;4.97;;
66874;SDS011;53784;52.630;4.896;2023-04-29T10:02:55;6.70;;;4.90;;
66874;SDS011;53784;52.630;4.896;2023-04-29T10:05:24;6.70;;;5.35;;
66874;SDS011;53784;52.630;4.896;2023-04-29T10:07:52;6.97;;;5.22;;
66874;SDS011;53784;52.630;4.896;2023-04-29T10:10:18;6.97;;;4.93;;
66874;SDS011;53784;52.630;4.896;2023-04-29T10:12:45;7.88;;;5.30;;
66874;SDS011;53784;52.630;4.896;2023-04-29T10:15:19;7.38;;;5.18;;
66874;SDS011;53784;52.630;4.896;2023-04-29T10:18:02;7.28;;;5.03;;
66874;SDS011;53784;52.630;4.896;2023-04-29T10:20:34;7.32;;;5.28;;
66874;SDS011;53784;52.630;4.896;2023-04-29T10:23:01;6.93;;;4.90;;
66874;SDS011;53784;52.630;4.896;2023-04-29T10:25:28;6.93;;;5.10;;
66874;SDS011;53784;52.630;4.896;2023-04-29T10:27:54;7.88;;;5.13;;
66874;SDS011;53784;52.630;4.896;2023-04-29T10:30:20;7.50;;;5.65;;
66874;SDS011;53784;52.630;4.896;2023-04-29T10:32:47;6.65;;;5.10;;
66874;SDS011;53784;52.630;4.896;2023-04-29T10:35:14;7.43;;;4.78;;
66874;SDS011;53784;52.630;4.896;2023-04-29T10:37:40;6.22;;;5.32;;
66874;SDS011;53784;52.630;4.896;2023-04-29T10:40:09;7.38;;;5.00;;
66874;SDS011;53784;52.630;4.896;2023-04-29T10:42:41;7.70;;;5.30;;
66874;SDS011;53784;52.630;4.896;2023-04-29T10:45:18;6.40;;;4.90;;
66874;SDS011;53784;52.630;4.896;2023-04-29T10:51:12;9.00;;;5.13;;
66874;SDS011;53784;52.630;4.896;2023-04-29T10:53:13;6.75;;;4.70;;
66874;SDS011;53784;52.630;4.896;2023-04-29T10:55:39;6.22;;;4.47;;
66874;SDS011;53784;52.630;4.896;2023-04-29T10:58:05;7.00;;;4.93;;
66874;SDS011;53784;52.630;4.896;2023-04-29T11:00:33;7.60;;;5.18;;
66874;SDS011;53784;52.630;4.896;2023-04-29T11:05:28;7.20;;;5.32;;
66874;SDS011;53784;52.630;4.896;2023-04-29T11:08:10;6.70;;;5.00;;
66874;SDS011;53784;52.630;4.896;2023-04-29T11:10:39;8.05;;;5.43;;
66874;SDS011;53784;52.630;4.896;2023-04-29T11:13:24;7.90;;;5.60;;
66874;SDS011;53784;52.630;4.896;2023-04-29T11:15:52;7.40;;;4.88;;
66874;SDS011;53784;52.630;4.896;2023-04-29T11:18:18;7.00;;;5.00;;
66874;SDS011;53784;52.630;4.896;2023-04-29T11:23:34;7.85;;;4.72;;
66874;SDS011;53784;52.630;4.896;2023-04-29T11:26:00;5.63;;;4.20;;
66874;SDS011;53784;52.630;4.896;2023-04-29T11:28:29;6.95;;;4.53;;
66874;SDS011;53784;52.630;4.896;2023-04-29T11:30:55;5.35;;;4.50;;
66874;SDS011;53784;52.630;4.896;2023-04-29T11:33:21;6.55;;;4.45;;
66874;SDS011;53784;52.630;4.896;2023-04-29T11:35:47;6.13;;;4.30;;
66874;SDS011;53784;52.630;4.896;2023-04-29T11:38:12;7.23;;;4.37;;
66874;SDS011;53784;52.630;4.896;2023-04-29T11:40:41;5.63;;;3.97;;
66874;SDS011;53784;52.630;4.896;2023-04-29T11:43:15;5.88;;;4.30;;
66874;SDS011;53784;52.630;4.896;2023-04-29T11:45:43;6.43;;;4.68;;
66874;SDS011;53784;52.630;4.896;2023-04-29T11:48:09;6.53;;;4.00;;
66874;SDS011;53784;52.630;4.896;2023-04-29T11:50:42;5.30;;;3.80;;
66874;SDS011;53784;52.630;4.896;2023-04-29T11:53:07;6.07;;;3.20;;
66874;SDS011;53784;52.630;4.896;2023-04-29T11:55:33;5.43;;;2.80;;
66874;SDS011;53784;52.630;4.896;2023-04-29T11:57:58;6.15;;;3.25;;
66874;SDS011;53784;52.630;4.896;2023-04-29T12:00:23;6.88;;;3.20;;
66874;SDS011;53784;52.630;4.896;2023-04-29T12:02:49;5.78;;;3.30;;
66874;SDS011;53784;52.630;4.896;2023-04-29T12:05:14;5.80;;;3.10;;
66874;SDS011;53784;52.630;4.896;2023-04-29T12:07:40;5.53;;;3.10;;
66874;SDS011;53784;52.630;4.896;2023-04-29T12:10:09;6.00;;;3.03;;
66874;SDS011;53784;52.630;4.896;2023-04-29T12:12:35;4.55;;;3.05;;
66874;SDS011;53784;52.630;4.896;2023-04-29T12:15:01;5.15;;;3.13;;
66874;SDS011;53784;52.630;4.896;2023-04-29T12:17:27;5.13;;;2.90;;
66874;SDS011;53784;52.630;4.896;2023-04-29T12:19:53;5.40;;;2.78;;
66874;SDS011;53784;52.630;4.896;2023-04-29T12:22:18;4.93;;;2.63;;
66874;SDS011;53784;52.630;4.896;2023-04-29T12:24:44;4.63;;;2.80;;
66874;SDS011;53784;52.630;4.896;2023-04-29T12:27:09;5.40;;;3.00;;
66874;SDS011;53784;52.630;4.896;2023-04-29T12:29:35;4.68;;;2.80;;
66874;SDS011;53784;52.630;4.896;2023-04-29T12:32:01;4.38;;;2.90;;
66874;SDS011;53784;52.630;4.896;2023-04-29T12:34:27;5.30;;;3.00;;
66874;SDS011;53784;52.630;4.896;2023-04-29T12:36:59;4.55;;;2.78;;
66874;SDS011;53784;52.630;4.896;2023-04-29T12:39:25;6.07;;;2.90;;
66874;SDS011;53784;52.630;4.896;2023-04-29T12:41:53;4.70;;;2.47;;
66874;SDS011;53784;52.630;4.896;2023-04-29T12:44:20;5.15;;;2.70;;
66874;SDS011;53784;52.630;4.896;2023-04-29T12:46:45;4.55;;;2.40;;
66874;SDS011;53784;52.630;4.896;2023-04-29T12:49:12;4.82;;;2.40;;
66874;SDS011;53784;52.630;4.896;2023-04-29T12:51:37;6.78;;;2.15;;
66874;SDS011;53784;52.630;4.896;2023-04-29T12:54:03;3.63;;;2.00;;
66874;SDS011;53784;52.630;4.896;2023-04-29T12:56:29;7.20;;;2.20;;
66874;SDS011;53784;52.630;4.896;2023-04-29T12:58:55;4.07;;;2.10;;
66874;SDS011;53784;52.630;4.896;2023-04-29T13:01:20;4.72;;;2.10;;
66874;SDS011;53784;52.630;4.896;2023-04-29T13:03:46;4.68;;;1.80;;
66874;SDS011;53784;52.630;4.896;2023-04-29T13:06:11;5.53;;;1.90;;
66874;SDS011;53784;52.630;4.896;2023-04-29T13:08:36;3.92;;;1.90;;
66874;SDS011;53784;52.630;4.896;2023-04-29T13:11:02;4.40;;;1.80;;
66874;SDS011;53784;52.630;4.896;2023-04-29T13:13:27;4.82;;;2.20;;
66874;SDS011;53784;52.630;4.896;2023-04-29T13:15:52;6.18;;;2.08;;
66874;SDS011;53784;52.630;4.896;2023-04-29T13:18:18;4.25;;;2.20;;
66874;SDS011;53784;52.630;4.896;2023-04-29T13:20:43;4.25;;;2.28;;
66874;SDS011;53784;52.630;4.896;2023-04-29T13:23:09;4.45;;;2.20;;
66874;SDS011;53784;52.630;4.896;2023-04-29T13:25:34;4.85;;;1.95;;
66874;SDS011;53784;52.630;4.896;2023-04-29T13:27:59;5.93;;;2.20;;
66874;SDS011;53784;52.630;4.896;2023-04-29T13:30:25;4.78;;;2.25;;
66874;SDS011;53784;52.630;4.896;2023-04-29T13:32:50;7.72;;;2.22;;
66874;SDS011;53784;52.630;4.896;2023-04-29T13:35:16;8.93;;;2.17;;
66874;SDS011;53784;52.630;4.896;2023-04-29T13:37:41;5.07;;;2.40;;
66874;SDS011;53784;52.630;4.896;2023-04-29T13:40:07;5.55;;;2.13;;
66874;SDS011;53784;52.630;4.896;2023-04-29T13:42:32;5.00;;;2.15;;
66874;SDS011;53784;52.630;4.896;2023-04-29T13:44:58;5.15;;;1.88;;
66874;SDS011;53784;52.630;4.896;2023-04-29T13:47:23;4.93;;;2.08;;
66874;SDS011;53784;52.630;4.896;2023-04-29T13:49:48;3.80;;;1.98;;
66874;SDS011;53784;52.630;4.896;2023-04-29T13:52:14;3.45;;;1.70;;
66874;SDS011;53784;52.630;4.896;2023-04-29T13:54:39;5.70;;;1.90;;
66874;SDS011;53784;52.630;4.896;2023-04-29T13:57:04;5.03;;;2.00;;
66874;SDS011;53784;52.630;4.896;2023-04-29T13:59:30;3.17;;;1.55;;
66874;SDS011;53784;52.630;4.896;2023-04-29T14:01:56;4.30;;;1.80;;
66874;SDS011;53784;52.630;4.896;2023-04-29T14:04:22;5.63;;;1.65;;
66874;SDS011;53784;52.630;4.896;2023-04-29T14:06:48;5.65;;;1.80;;
66874;SDS011;53784;52.630;4.896;2023-04-29T14:09:14;4.30;;;1.73;;
66874;SDS011;53784;52.630;4.896;2023-04-29T14:11:39;4.32;;;1.42;;
66874;SDS011;53784;52.630;4.896;2023-04-29T14:14:05;3.65;;;1.48;;
66874;SDS011;53784;52.630;4.896;2023-04-29T14:16:30;4.95;;;1.77;;
66874;SDS011;53784;52.630;4.896;2023-04-29T14:18:56;3.88;;;2.00;;
66874;SDS011;53784;52.630;4.896;2023-04-29T14:21:21;5.03;;;2.28;;
66874;SDS011;53784;52.630;4.896;2023-04-29T14:23:47;5.80;;;2.40;;
66874;SDS011;53784;52.630;4.896;2023-04-29T14:26:12;6.30;;;2.40;;
66874;SDS011;53784;52.630;4.896;2023-04-29T14:28:38;6.75;;;2.63;;
66874;SDS011;53784;52.630;4.896;2023-04-29T14:31:03;4.85;;;2.30;;
66874;SDS011;53784;52.630;4.896;2023-04-29T14:33:28;6.20;;;2.97;;
66874;SDS011;53784;52.630;4.896;2023-04-29T14:35:55;9.02;;;3.30;;
66874;SDS011;53784;52.630;4.896;2023-04-29T14:38:20;7.10;;;3.03;;
66874;SDS011;53784;52.630;4.896;2023-04-29T14:40:45;7.15;;;3.03;;
66874;SDS011;53784;52.630;4.896;2023-04-29T14:43:11;7.22;;;2.90;;
66874;SDS011;53784;52.630;4.896;2023-04-29T14:45:36;5.95;;;2.90;;
66874;SDS011;53784;52.630;4.896;2023-04-29T14:48:02;5.53;;;2.58;;
66874;SDS011;53784;52.630;4.896;2023-04-29T14:50:28;5.88;;;2.80;;
66874;SDS011;53784;52.630;4.896;2023-04-29T14:52:54;8.05;;;2.80;;